createdAt,value
2023-04-08T05:16:21.982Z,76.70
2023-04-08T05:19:23.795Z,76.80
2023-04-08T05:22:25.478Z,76.80
2023-04-08T05:25:27.148Z,76.90
2023-04-08T05:28:29.011Z,77.10
2023-04-08T05:31:30.722Z,77.20
2023-04-08T05:34:32.447Z,77.20
2023-04-08T05:37:34.177Z,77.30
2023-04-08T05:40:35.893Z,77.40
2023-04-08T05:43:37.568Z,77.60
2023-04-08T05:46:39.528Z,77.60
2023-04-08T05:49:41.818Z,77.50
2023-04-08T05:52:44.813Z,77.30
2023-04-08T05:55:46.676Z,77.10
2023-04-08T05:58:48.496Z,77.00
2023-04-08T06:01:51.791Z,76.90
2023-04-08T06:04:53.611Z,76.80
2023-04-08T06:07:55.580Z,76.70
2023-04-08T06:10:57.252Z,76.70
2023-04-08T06:13:58.907Z,76.70
2023-04-08T06:17:00.570Z,76.70
2023-04-08T06:20:02.494Z,76.70
2023-04-08T06:23:04.176Z,76.80
2023-04-08T06:26:06.047Z,76.80
2023-04-08T06:29:08.068Z,76.90
2023-04-08T06:32:10.041Z,76.80
2023-04-08T06:35:11.764Z,76.80
2023-04-08T06:38:13.615Z,76.70
2023-04-08T06:41:15.304Z,76.60
2023-04-08T06:44:16.928Z,76.70
2023-04-08T06:47:18.893Z,76.50
2023-04-08T06:50:20.564Z,76.50
2023-04-08T06:53:26.226Z,76.60
2023-04-08T06:56:28.269Z,76.50
2023-04-08T06:59:30.415Z,76.50
2023-04-08T07:02:32.780Z,76.50
2023-04-08T07:05:38.661Z,76.50
2023-04-08T07:08:40.512Z,76.50
2023-04-08T07:11:42.444Z,76.50
2023-04-08T07:14:44.107Z,76.50
2023-04-08T07:17:46.299Z,76.40
2023-04-08T07:20:52.986Z,76.40
2023-04-08T07:23:54.628Z,76.50
2023-04-08T07:26:57.078Z,76.40
2023-04-08T07:29:58.714Z,76.40
2023-04-08T07:33:01.061Z,76.20
2023-04-08T07:36:03.442Z,76.10
2023-04-08T07:39:05.352Z,76.00
2023-04-08T07:42:07.020Z,75.90
2023-04-08T07:45:09.186Z,75.80
2023-04-08T07:48:11.223Z,75.70
2023-04-08T07:51:13.182Z,75.60
2023-04-08T07:54:17.333Z,75.40
2023-04-08T07:57:19.199Z,75.30
2023-04-08T08:00:21.805Z,75.10
2023-04-08T08:03:23.691Z,75.00
2023-04-08T08:06:25.820Z,74.80
2023-04-08T08:09:27.589Z,74.80
2023-04-08T08:12:29.226Z,74.60
2023-04-08T08:15:30.969Z,74.50
2023-04-08T08:18:32.887Z,74.30
2023-04-08T08:21:38.026Z,74.10
2023-04-08T08:24:39.759Z,73.80
2023-04-08T08:27:42.435Z,73.60
2023-04-08T08:30:44.064Z,73.40
2023-04-08T08:33:46.720Z,73.10
2023-04-08T08:36:48.678Z,72.70
2023-04-08T08:39:50.316Z,72.50
2023-04-08T08:42:52.390Z,72.30
2023-04-08T08:45:54.374Z,71.80
2023-04-08T08:48:56.721Z,71.40
2023-04-08T08:51:58.377Z,71.00
2023-04-08T08:55:00.185Z,70.60
2023-04-08T08:58:02.444Z,70.30
2023-04-08T09:01:04.100Z,70.10
2023-04-08T09:04:09.866Z,69.60
2023-04-08T09:07:13.754Z,69.20
2023-04-08T09:10:15.559Z,68.80
2023-04-08T09:13:17.220Z,68.50
2023-04-08T09:16:19.862Z,68.30
2023-04-08T09:19:21.798Z,67.90
2023-04-08T09:22:23.520Z,67.50
2023-04-08T09:25:32.751Z,67.20
2023-04-08T09:28:34.504Z,67.00
2023-04-08T09:31:42.578Z,66.50
2023-04-08T09:34:44.236Z,65.70
2023-04-08T09:37:46.552Z,65.40
2023-04-08T09:40:48.225Z,65.40
2023-04-08T09:43:55.780Z,65.30
2023-04-08T09:47:18.386Z,64.70
2023-04-08T09:50:20.420Z,63.90
2023-04-08T09:53:29.921Z,63.40
2023-04-08T09:56:36.403Z,63.10
2023-04-08T09:59:38.661Z,62.80
2023-04-08T10:02:57.333Z,62.30
2023-04-08T10:05:59.804Z,62.10
2023-04-08T10:09:02.060Z,62.10
2023-04-08T10:12:03.881Z,61.90
2023-04-08T10:15:25.131Z,61.60
2023-04-08T10:18:29.881Z,61.20
2023-04-08T10:21:36.057Z,61.50
2023-04-08T10:24:37.699Z,61.60
2023-04-08T10:27:41.130Z,61.30
2023-04-08T10:30:49.708Z,61.30
2023-04-08T10:33:51.819Z,61.20
2023-04-08T10:36:55.759Z,61.00
2023-04-08T10:39:57.410Z,60.80
2023-04-08T10:42:59.450Z,60.70
2023-04-08T10:46:01.868Z,60.50
2023-04-08T10:49:03.696Z,60.40
2023-04-08T10:52:09.161Z,59.80
2023-04-08T10:55:10.878Z,59.50
2023-04-08T10:58:12.770Z,59.10
2023-04-08T11:01:14.578Z,58.80
2023-04-08T11:04:18.809Z,58.50
2023-04-08T11:07:21.219Z,57.90
2023-04-08T11:10:22.845Z,57.50
2023-04-08T11:13:24.544Z,56.70
2023-04-08T11:16:27.841Z,56.10
2023-04-08T11:19:29.596Z,55.50
2023-04-08T11:22:33.515Z,55.10
2023-04-08T11:25:35.175Z,54.70
2023-04-08T11:28:36.855Z,54.20
2023-04-08T11:31:38.637Z,53.90
2023-04-08T11:34:40.644Z,53.60
2023-04-08T11:37:42.320Z,53.50
2023-04-08T11:40:57.180Z,53.70
2023-04-08T11:43:58.823Z,54.00
2023-04-08T11:47:02.230Z,53.90
2023-04-08T11:50:04.230Z,53.70
2023-04-08T11:53:16.708Z,53.30
2023-04-08T11:56:23.427Z,53.30
2023-04-08T11:59:27.436Z,53.20
2023-04-08T12:02:30.961Z,53.50
2023-04-08T12:05:32.665Z,53.70
2023-04-08T12:08:34.467Z,53.70
2023-04-08T12:11:36.194Z,53.70
2023-04-08T12:14:37.813Z,53.90
2023-04-08T12:17:39.503Z,53.60
2023-04-08T12:20:41.163Z,53.30
2023-04-08T12:23:42.895Z,53.10
2023-04-08T12:26:44.805Z,52.80
2023-04-08T12:29:46.447Z,52.50
2023-04-08T12:32:48.174Z,52.10
2023-04-08T12:35:50.147Z,51.50
2023-04-08T12:38:51.988Z,51.00
2023-04-08T12:41:53.876Z,50.80
2023-04-08T12:44:55.515Z,50.50
2023-04-08T12:47:57.336Z,50.40
2023-04-08T12:50:59.112Z,50.40
2023-04-08T12:54:01.314Z,50.50
2023-04-08T12:57:03.093Z,50.80
2023-04-08T13:00:05.444Z,50.80
2023-04-08T13:03:07.266Z,51.00
2023-04-08T13:06:09.056Z,50.50
2023-04-08T13:09:10.697Z,50.00
2023-04-08T13:12:12.410Z,49.20
2023-04-08T13:15:14.104Z,48.70
2023-04-08T13:18:15.872Z,48.20
2023-04-08T13:21:17.601Z,47.90
2023-04-08T13:24:19.249Z,48.00
2023-04-08T13:27:21.501Z,48.50
2023-04-08T13:30:23.192Z,48.50
2023-04-08T13:33:24.885Z,48.20
2023-04-08T13:36:28.589Z,47.70
2023-04-08T13:39:31.066Z,47.30
2023-04-08T13:42:32.911Z,47.40
2023-04-08T13:45:34.884Z,47.20
2023-04-08T13:48:36.587Z,47.50
2023-04-08T13:51:38.249Z,47.60
2023-04-08T13:54:40.023Z,47.60
2023-04-08T13:57:41.959Z,47.10
2023-04-08T14:00:43.609Z,46.40
2023-04-08T14:03:45.269Z,46.20
2023-04-08T14:06:47.540Z,45.80
2023-04-08T14:09:49.213Z,45.80
2023-04-08T14:12:50.941Z,45.70
2023-04-08T14:15:55.052Z,46.20
2023-04-08T14:18:57.089Z,46.70
2023-04-08T14:21:58.830Z,46.90
2023-04-08T14:25:00.518Z,46.80
2023-04-08T14:28:02.382Z,46.50
2023-04-08T14:31:07.177Z,46.10
2023-04-08T14:34:08.880Z,46.10
2023-04-08T14:37:12.159Z,45.70
2023-04-08T14:40:13.874Z,45.60
2023-04-08T14:43:15.573Z,45.90
2023-04-08T14:46:17.657Z,46.20
2023-04-08T14:49:19.388Z,46.90
2023-04-08T14:52:21.094Z,47.60
2023-04-08T14:55:22.918Z,48.20
2023-04-08T14:58:24.737Z,48.80
2023-04-08T15:01:26.436Z,48.80
2023-04-08T15:04:28.267Z,49.00
2023-04-08T15:07:30.317Z,49.00
2023-04-08T15:10:32.143Z,48.90
2023-04-08T15:13:35.882Z,48.80
2023-04-08T15:16:37.535Z,48.70
2023-04-08T15:19:39.329Z,48.40
2023-04-08T15:22:41.152Z,48.10
2023-04-08T15:25:43.033Z,47.50
2023-04-08T15:28:44.738Z,46.80
2023-04-08T15:31:46.509Z,46.30
2023-04-08T15:34:48.387Z,46.50
2023-04-08T15:37:50.252Z,46.40
2023-04-08T15:40:52.546Z,45.70
2023-04-08T15:43:54.276Z,45.10
2023-04-08T15:46:56.505Z,44.50
2023-04-08T15:49:58.445Z,44.40
2023-04-08T15:53:00.319Z,45.30
2023-04-08T15:56:03.497Z,46.10
2023-04-08T15:59:05.622Z,46.70
2023-04-08T16:02:07.453Z,47.10
2023-04-08T16:05:09.481Z,46.80
2023-04-08T16:08:11.580Z,46.50
2023-04-08T16:11:13.241Z,46.10
2023-04-08T16:14:15.150Z,45.20
2023-04-08T16:17:16.912Z,44.50
2023-04-08T16:20:20.679Z,44.10
2023-04-08T16:23:22.666Z,44.00
2023-04-08T16:26:27.246Z,44.20
2023-04-08T16:29:29.283Z,43.60
2023-04-08T16:32:31.028Z,43.10
2023-04-08T16:35:32.743Z,42.70
2023-04-08T16:38:35.455Z,42.20
2023-04-08T16:41:37.125Z,41.80
2023-04-08T16:44:38.799Z,41.70
2023-04-08T16:48:00.369Z,41.60
2023-04-08T16:51:06.879Z,41.20
2023-04-08T16:54:08.631Z,41.10
2023-04-08T16:57:29.312Z,40.90
2023-04-08T17:00:31.125Z,41.20
2023-04-08T17:03:32.835Z,41.40
2023-04-08T17:06:35.767Z,41.30
2023-04-08T17:09:37.423Z,41.50
2023-04-08T17:12:39.341Z,41.80
2023-04-08T17:15:41.171Z,42.20
2023-04-08T17:18:43.408Z,42.60
2023-04-08T17:21:45.481Z,43.00
2023-04-08T17:24:48.211Z,43.40
2023-04-08T17:27:50.207Z,43.80
2023-04-08T17:30:52.141Z,44.60
2023-04-08T17:33:53.896Z,45.20
2023-04-08T17:36:56.807Z,45.50
2023-04-08T17:39:58.638Z,45.10
2023-04-08T17:43:00.521Z,44.50
2023-04-08T17:46:02.326Z,44.50
2023-04-08T17:49:04.006Z,44.70
2023-04-08T17:52:06.146Z,44.90
2023-04-08T17:55:08.305Z,45.10
2023-04-08T17:58:11.588Z,45.40
2023-04-08T18:01:13.281Z,45.80
2023-04-08T18:04:15.166Z,46.20
2023-04-08T18:07:17.119Z,46.90
2023-04-08T18:10:18.826Z,47.60
2023-04-08T18:13:20.581Z,48.20
2023-04-08T18:16:22.516Z,48.90
2023-04-08T18:19:26.243Z,49.30
2023-04-08T18:22:27.945Z,49.70
2023-04-08T18:25:29.895Z,50.10
2023-04-08T18:28:31.560Z,50.50
2023-04-08T18:31:33.229Z,50.80
2023-04-08T18:34:34.898Z,51.10
2023-04-08T18:37:36.881Z,51.50
2023-04-08T18:40:39.029Z,51.80
2023-04-08T18:43:40.719Z,52.20
2023-04-08T18:46:42.877Z,52.40
2023-04-08T18:49:44.551Z,52.70
2023-04-08T18:52:46.203Z,52.90
2023-04-08T18:55:48.191Z,53.20
2023-04-08T18:58:50.261Z,53.50
2023-04-08T19:01:51.996Z,53.80
2023-04-08T19:04:55.076Z,54.10
2023-04-08T19:07:56.930Z,54.30
2023-04-08T19:10:58.753Z,54.50
2023-04-08T19:14:00.395Z,54.80
2023-04-08T19:17:02.044Z,55.00
2023-04-08T19:20:03.904Z,55.30
2023-04-08T19:23:05.988Z,55.50
2023-04-08T19:26:08.260Z,55.60
2023-04-08T19:29:11.884Z,55.90
2023-04-08T19:32:14.316Z,56.30
2023-04-08T19:35:16.053Z,56.70
2023-04-08T19:38:18.075Z,57.00
2023-04-08T19:41:21.086Z,57.20
2023-04-08T19:44:22.744Z,57.50
2023-04-08T19:47:24.605Z,57.90
2023-04-08T19:50:26.336Z,58.20
2023-04-08T19:53:27.982Z,58.60
2023-04-08T19:56:33.768Z,58.90
2023-04-08T19:59:35.504Z,59.20
2023-04-08T20:02:37.348Z,59.40
2023-04-08T20:05:39.544Z,59.70
2023-04-08T20:08:41.179Z,60.00
2023-04-08T20:11:43.111Z,60.30
2023-04-08T20:14:45.110Z,60.60
2023-04-08T20:17:47.229Z,61.00
2023-04-08T20:20:48.984Z,61.20
2023-04-08T20:23:50.703Z,61.50
2023-04-08T20:26:52.630Z,61.70
2023-04-08T20:29:57.633Z,61.70
2023-04-08T20:32:59.400Z,61.80
2023-04-08T20:36:01.486Z,61.90
2023-04-08T20:39:03.348Z,62.10
2023-04-08T20:42:06.527Z,62.40
2023-04-08T20:45:11.706Z,62.70
2023-04-08T20:48:13.763Z,62.90
2023-04-08T20:51:17.316Z,63.00
2023-04-08T20:54:19.019Z,63.00
2023-04-08T20:57:20.699Z,63.20
2023-04-08T21:00:22.334Z,63.40
2023-04-08T21:03:24.470Z,63.50
2023-04-08T21:06:27.476Z,63.70
2023-04-08T21:09:29.135Z,64.00
2023-04-08T21:12:30.768Z,64.30
2023-04-08T21:15:32.468Z,64.50
2023-04-08T21:18:34.215Z,64.80
2023-04-08T21:21:35.977Z,64.80
2023-04-08T21:24:38.046Z,64.70
2023-04-08T21:27:41.159Z,64.80
2023-04-08T21:30:42.946Z,64.90
2023-04-08T21:33:44.589Z,64.90
2023-04-08T21:36:46.507Z,64.90
2023-04-08T21:39:48.262Z,65.10
2023-04-08T21:42:49.931Z,65.20
2023-04-08T21:45:53.487Z,65.30
2023-04-08T21:48:55.230Z,65.40
2023-04-08T21:51:56.885Z,65.40
2023-04-08T21:54:58.869Z,65.60
2023-04-08T21:58:01.121Z,65.80
2023-04-08T22:01:03.898Z,65.90
2023-04-08T22:04:05.726Z,66.20
2023-04-08T22:07:07.638Z,66.30
2023-04-08T22:10:09.836Z,66.50
2023-04-08T22:13:11.557Z,66.50
2023-04-08T22:16:13.566Z,66.60
2023-04-08T22:19:15.821Z,66.60
2023-04-08T22:22:17.527Z,66.80
2023-04-08T22:25:19.280Z,67.00
2023-04-08T22:28:21.262Z,67.20
2023-04-08T22:31:23.039Z,67.20
2023-04-08T22:34:24.829Z,67.30
2023-04-08T22:37:26.602Z,67.60
